Time;durP1;ratioP1;P1;durP2;ratioP2;P2;SDS_P1;SDS_P2;PMS_P1;PMS_P2;Temp;Humidity;BMP_temperature;BMP_pressure;BME280_temperature;BME280_humidity;BME280_pressure;Samples;Min_cycle;Max_cycle;Signal;HPM_P1;HPM_P2
2022/08/04 00:02:21;;;;;;;21.90;10.03;;;;;;;18.26;100.00;99171.23;2144504;83;21039;-63
2022/08/04 00:05:23;;;;;;;20.92;9.23;;;;;;;18.20;100.00;99165.97;2144690;83;21010;-66
2022/08/04 00:08:24;;;;;;;22.02;8.70;;;;;;;18.09;100.00;99168.25;2144965;83;21497;-65
2022/08/04 00:11:25;;;;;;;24.25;12.07;;;;;;;18.07;100.00;99170.18;2144694;83;20975;-64
2022/08/04 00:14:27;;;;;;;24.07;12.45;;;;;;;18.07;100.00;99164.87;2145104;83;21028;-68
2022/08/04 00:17:28;;;;;;;23.42;11.43;;;;;;;18.08;100.00;99167.88;2144663;83;21034;-62
2022/08/04 00:20:30;;;;;;;26.23;13.78;;;;;;;18.06;100.00;99164.54;2144962;83;21140;-67
2022/08/04 00:23:32;;;;;;;26.68;11.75;;;;;;;18.06;100.00;99161.02;2144658;83;21392;-67
2022/08/04 00:26:33;;;;;;;24.12;12.28;;;;;;;18.05;100.00;99164.67;2144517;83;21007;-69
2022/08/04 00:29:35;;;;;;;25.30;12.00;;;;;;;18.00;100.00;99165.05;2144685;83;21002;-65
2022/08/04 00:32:37;;;;;;;22.75;10.00;;;;;;;17.99;100.00;99165.55;2144754;83;21037;-67
2022/08/04 00:35:38;;;;;;;22.85;12.30;;;;;;;18.03;100.00;99165.27;2144834;83;20960;-66
2022/08/04 00:38:40;;;;;;;20.45;9.78;;;;;;;17.92;100.00;99164.39;2144714;83;21031;-65
2022/08/04 00:41:41;;;;;;;23.45;10.85;;;;;;;17.87;100.00;99168.38;2144923;83;21565;-68
2022/08/04 00:44:42;;;;;;;21.95;11.43;;;;;;;17.78;100.00;99167.36;2144535;83;21050;-64
2022/08/04 00:47:44;;;;;;;24.05;10.48;;;;;;;17.73;100.00;99173.07;2145013;83;21066;-67
2022/08/04 00:50:45;;;;;;;22.52;10.90;;;;;;;17.72;100.00;99168.73;2144834;83;20964;-66
2022/08/04 00:53:47;;;;;;;26.85;11.80;;;;;;;17.71;100.00;99174.16;2144626;83;20991;-65
2022/08/04 00:56:48;;;;;;;23.95;12.03;;;;;;;17.68;100.00;99176.59;2144489;83;21032;-71
2022/08/04 00:59:50;;;;;;;24.82;11.40;;;;;;;17.65;100.00;99172.38;2144657;83;21027;-67
2022/08/04 01:02:52;;;;;;;23.70;12.47;;;;;;;17.63;100.00;99168.20;2144870;83;21533;-70
2022/08/04 01:05:54;;;;;;;26.90;13.32;;;;;;;17.61;100.00;99170.98;2144574;83;21025;-72
2022/08/04 01:08:56;;;;;;;24.95;12.75;;;;;;;17.59;100.00;99170.25;2144580;83;21024;-71
2022/08/04 01:11:57;;;;;;;29.63;14.47;;;;;;;17.59;100.00;99178.70;2144589;83;21047;-68
2022/08/04 01:14:59;;;;;;;25.23;12.70;;;;;;;17.60;100.00;99177.25;2144915;83;21502;-71
2022/08/04 01:18:00;;;;;;;24.07;12.30;;;;;;;17.59;100.00;99182.69;2144674;83;20991;-69
2022/08/04 01:21:01;;;;;;;22.75;11.45;;;;;;;17.56;100.00;99178.97;2145006;83;21578;-70
2022/08/04 01:24:03;;;;;;;21.85;10.78;;;;;;;17.74;100.00;99184.52;2144808;83;21047;-67
2022/08/04 01:27:04;;;;;;;24.67;12.80;;;;;;;17.75;100.00;99184.87;2144544;83;21020;-69
2022/08/04 01:30:06;;;;;;;24.60;12.50;;;;;;;17.60;100.00;99181.23;2144710;83;20964;-68
2022/08/04 01:33:07;;;;;;;25.40;12.28;;;;;;;17.51;100.00;99181.98;2144564;83;21055;-69
2022/08/04 01:36:09;;;;;;;23.20;11.95;;;;;;;17.40;100.00;99183.41;2144389;83;21067;-70
2022/08/04 01:42:14;;;;;;;23.80;11.90;;;;;;;17.24;100.00;99183.34;2120069;83;21019;-71
2022/08/04 01:45:18;;;;;;;25.23;12.30;;;;;;;17.25;100.00;99185.50;2134431;83;21043;-66
2022/08/04 01:48:18;;;;;;;23.50;12.00;;;;;;;17.10;100.00;99180.50;2106230;83;21495;-68
2022/08/04 01:51:20;;;;;;;25.27;12.28;;;;;;;17.10;100.00;99182.33;2134557;83;21042;-68
2022/08/04 01:54:21;;;;;;;26.42;12.73;;;;;;;17.04;100.00;99182.81;2134468;83;21038;-71
2022/08/04 01:57:23;;;;;;;23.42;9.25;;;;;;;16.95;100.00;99181.30;2134688;83;21115;-69
2022/08/04 02:00:26;;;;;;;23.75;12.15;;;;;;;16.83;100.00;99179.60;2134471;83;21057;-65
2022/08/04 02:03:27;;;;;;;26.15;12.60;;;;;;;16.73;100.00;99181.32;2134410;83;21044;-66
2022/08/04 02:06:30;;;;;;;17.97;7.37;;;;;;;16.75;100.00;99176.27;2134492;83;21103;-65
2022/08/04 02:09:32;;;;;;;18.95;7.80;;;;;;;16.57;100.00;99175.09;2134074;83;21741;-67
2022/08/04 02:12:33;;;;;;;24.02;12.30;;;;;;;16.55;100.00;99175.23;2134335;83;21637;-67
2022/08/04 02:15:35;;;;;;;22.70;9.85;;;;;;;16.44;100.00;99177.89;2134231;83;21052;-67
2022/08/04 02:18:36;;;;;;;23.97;12.13;;;;;;;16.22;100.00;99166.36;2134447;83;21064;-70
2022/08/04 02:21:37;;;;;;;21.33;9.53;;;;;;;16.22;100.00;99166.36;2134456;83;21068;-65
2022/08/04 02:24:39;;;;;;;21.67;10.70;;;;;;;16.31;100.00;99171.89;2134345;83;21083;-63
2022/08/04 02:27:41;;;;;;;21.67;10.40;;;;;;;16.38;100.00;99169.95;2134626;83;22262;-65
2022/08/04 02:30:43;;;;;;;23.85;10.70;;;;;;;16.39;100.00;99160.19;2134357;83;21056;-67
2022/08/04 02:33:45;;;;;;;;;;;;;;;16.42;100.00;99162.59;2136617;83;21100;-64
2022/08/04 02:36:47;;;;;;;28.85;13.15;;;;;;;16.48;100.00;99162.58;2134027;83;20143;-69
2022/08/04 02:39:48;;;;;;;30.55;14.13;;;;;;;16.51;100.00;99165.84;2134795;83;21000;-67
2022/08/04 02:42:49;;;;;;;28.25;14.30;;;;;;;16.54;100.00;99166.91;2135144;83;21547;-63
2022/08/04 02:45:51;;;;;;;28.47;11.28;;;;;;;16.58;100.00;99167.52;2144559;83;21074;-62
2022/08/04 02:48:53;;;;;;;24.63;11.93;;;;;;;16.57;100.00;99159.21;2144790;83;21062;-65
2022/08/04 02:51:54;;;;;;;25.20;11.40;;;;;;;16.54;100.00;99162.11;2144390;83;20984;-64
2022/08/04 02:54:56;;;;;;;21.67;9.73;;;;;;;16.46;100.00;99164.03;2144688;83;21048;-65
2022/08/04 02:57:57;;;;;;;21.77;10.03;;;;;;;16.34;100.00;99163.70;2144567;83;21007;-62
2022/08/04 03:00:59;;;;;;;23.22;11.63;;;;;;;16.34;100.00;99157.09;2144377;83;20999;-64
2022/08/04 03:04:00;;;;;;;24.70;11.87;;;;;;;16.39;100.00;99161.05;2144646;83;20984;-63
2022/08/04 03:07:01;;;;;;;26.50;12.00;;;;;;;16.45;100.00;99163.70;2144526;83;21284;-66
2022/08/04 03:10:03;;;;;;;23.02;10.40;;;;;;;16.46;100.00;99152.12;2144672;83;21534;-69
2022/08/04 03:13:04;;;;;;;22.25;10.48;;;;;;;16.41;100.00;99157.79;2144404;83;21022;-66
2022/08/04 03:16:06;;;;;;;20.57;9.27;;;;;;;16.22;100.00;99154.45;2144903;83;21475;-70
2022/08/04 03:19:07;;;;;;;21.47;9.37;;;;;;;16.16;100.00;99160.70;2144662;83;21243;-61
2022/08/04 03:22:09;;;;;;;23.47;10.25;;;;;;;16.14;100.00;99163.96;2144403;83;21000;-63
2022/08/04 03:25:10;;;;;;;22.05;9.13;;;;;;;16.07;100.00;99162.27;2144468;83;20992;-71
2022/08/04 03:28:12;;;;;;;19.95;8.28;;;;;;;15.98;100.00;99163.00;2142629;83;21533;-62
2022/08/04 03:31:14;;;;;;;21.93;9.28;;;;;;;16.03;100.00;99164.79;2141962;83;20999;-61
2022/08/04 03:34:16;;;;;;;20.62;8.75;;;;;;;16.19;100.00;99166.61;2141573;83;20995;-60
2022/08/04 03:37:17;;;;;;;23.75;10.15;;;;;;;16.32;100.00;99162.97;2144295;83;21045;-61
2022/08/04 03:40:19;;;;;;;17.17;6.85;;;;;;;16.44;100.00;99171.27;2144626;83;21075;-61
2022/08/04 03:43:21;;;;;;;19.35;7.50;;;;;;;16.47;100.00;99175.48;2144220;83;21549;-60
2022/08/04 03:46:23;;;;;;;18.17;7.08;;;;;;;16.47;100.00;99177.64;2144249;83;21529;-61
2022/08/04 03:49:26;;;;;;;19.67;8.98;;;;;;;16.55;100.00;99175.23;2144101;83;21034;-61
2022/08/04 03:55:31;;;;;;;22.37;10.70;;;;;;;16.79;100.00;99175.05;2120303;83;21071;-61
2022/08/04 03:58:33;;;;;;;;;;;;;;;17.01;100.00;99179.95;2146676;83;21063;-61
2022/08/04 04:01:35;;;;;;;21.55;10.00;;;;;;;17.16;100.00;99179.66;2144355;83;20163;-61
2022/08/04 04:04:36;;;;;;;22.73;10.18;;;;;;;17.29;100.00;99181.63;2144597;83;20984;-61
2022/08/04 04:07:38;;;;;;;21.00;8.95;;;;;;;17.48;100.00;99184.91;2144526;83;21506;-60
2022/08/04 04:10:40;;;;;;;20.20;8.83;;;;;;;17.70;100.00;99185.27;2144834;83;21072;-62
2022/08/04 04:13:42;;;;;;;21.68;8.33;;;;;;;17.88;100.00;99179.36;2144663;83;20995;-60
2022/08/04 04:16:44;;;;;;;18.55;7.47;;;;;;;18.15;100.00;99180.98;2144557;83;21035;-62
2022/08/04 04:19:46;;;;;;;18.87;7.65;;;;;;;18.15;100.00;99180.98;2144409;83;21027;-61
2022/08/04 04:22:48;;;;;;;18.25;7.78;;;;;;;18.32;100.00;99182.16;2144640;83;21125;-61
2022/08/04 04:25:49;;;;;;;23.45;9.48;;;;;;;18.52;100.00;99184.89;2144318;83;21008;-62
2022/08/04 04:28:50;;;;;;;21.75;8.70;;;;;;;18.87;100.00;99186.23;2144645;83;20996;-61
2022/08/04 04:31:52;;;;;;;18.12;7.35;;;;;;;19.14;100.00;99181.57;2144292;83;21011;-63
2022/08/04 04:34:53;;;;;;;20.57;7.85;;;;;;;19.36;100.00;99179.61;2144456;83;21030;-70
2022/08/04 04:37:55;;;;;;;19.80;7.85;;;;;;;19.58;100.00;99178.44;2144445;83;20952;-67
2022/08/04 04:40:56;;;;;;;20.85;8.05;;;;;;;19.69;100.00;99182.28;2144211;83;21031;-69
2022/08/04 04:43:58;;;;;;;21.90;8.80;;;;;;;19.85;100.00;99185.70;2140542;83;21135;-71
2022/08/04 04:47:00;;;;;;;19.23;8.30;;;;;;;20.12;100.00;99188.58;2134009;83;21119;-69
2022/08/04 04:50:01;;;;;;;20.37;8.60;;;;;;;20.26;100.00;99188.09;2134049;83;21060;-71
2022/08/04 04:53:02;;;;;;;19.80;8.23;;;;;;;20.33;100.00;99190.52;2134055;83;21572;-65
2022/08/04 04:56:04;;;;;;;20.57;8.55;;;;;;;20.53;100.00;99190.40;2134032;83;21119;-67
2022/08/04 04:59:06;;;;;;;21.10;7.85;;;;;;;20.94;100.00;99194.88;2134396;83;21119;-69
2022/08/04 05:02:07;;;;;;;20.40;8.75;;;;;;;21.25;100.00;99197.19;2134135;83;21088;-66
2022/08/04 05:05:09;;;;;;;21.77;8.65;;;;;;;21.56;100.00;99202.95;2134330;83;21073;-69
2022/08/04 05:08:10;;;;;;;21.27;8.78;;;;;;;21.82;100.00;99202.65;2134474;83;20968;-66
2022/08/04 05:11:12;;;;;;;20.70;7.80;;;;;;;21.98;100.00;99202.26;2134461;83;21106;-67
2022/08/04 05:14:14;;;;;;;18.75;7.67;;;;;;;22.17;100.00;99201.70;2134419;83;20999;-70
2022/08/04 05:17:15;;;;;;;;;;;;;;;22.38;100.00;99201.30;2136751;83;21121;-73
2022/08/04 05:20:17;;;;;;;20.40;7.93;;;;;;;22.62;100.00;99198.40;2134415;83;20152;-64
2022/08/04 05:23:18;;;;;;;25.02;8.00;;;;;;;22.82;100.00;99194.95;2134227;83;21071;-64
2022/08/04 05:26:20;;;;;;;19.40;7.33;;;;;;;23.04;100.00;99197.48;2134361;83;21107;-66
2022/08/04 05:29:21;;;;;;;18.80;7.65;;;;;;;23.21;100.00;99204.24;2133964;83;21007;-68
2022/08/04 05:32:23;;;;;;;19.02;6.78;;;;;;;23.42;100.00;99206.41;2134243;83;21606;-71
2022/08/04 05:35:24;;;;;;;17.52;7.25;;;;;;;23.72;100.00;99208.07;2134358;83;21052;-70
2022/08/04 05:38:25;;;;;;;19.87;7.47;;;;;;;23.88;100.00;99200.06;2134301;83;21099;-68
2022/08/04 05:41:27;;;;;;;18.70;6.85;;;;;;;24.07;100.00;99208.73;2134372;83;21052;-68
2022/08/04 05:44:28;;;;;;;18.60;6.87;;;;;;;24.21;100.00;99206.16;2137968;83;21095;-71
2022/08/04 05:47:30;;;;;;;18.42;6.67;;;;;;;24.34;100.00;99197.58;2144527;83;21581;-69
2022/08/04 05:50:31;;;;;;;19.40;6.70;;;;;;;24.48;100.00;99201.37;2144604;83;20960;-64
2022/08/04 05:53:33;;;;;;;18.70;6.80;;;;;;;24.69;100.00;99202.64;2144720;83;21482;-72
2022/08/04 05:56:35;;;;;;;16.75;6.47;;;;;;;24.90;100.00;99206.88;2144981;83;21016;-69
2022/08/04 05:59:36;;;;;;;16.52;6.40;;;;;;;25.10;100.00;99213.63;2144507;83;21007;-72
2022/08/04 06:02:37;;;;;;;19.25;6.83;;;;;;;25.31;100.00;99212.98;2144690;83;21079;-69
2022/08/04 06:05:39;;;;;;;;;;;;;;;25.50;100.00;99215.70;2147001;83;21086;-72
2022/08/04 06:08:40;;;;;;;17.12;6.35;;;;;;;25.57;100.00;99214.82;2144514;83;20143;-66
2022/08/04 06:11:42;;;;;;;18.65;6.47;;;;;;;25.53;100.00;99214.85;2144531;83;20984;-69
2022/08/04 06:14:44;;;;;;;19.62;6.72;;;;;;;25.69;100.00;99217.08;2144425;83;21063;-66
2022/08/04 06:17:46;;;;;;;17.42;6.80;;;;;;;25.78;100.00;99212.45;2144398;83;20995;-68
2022/08/04 06:20:47;;;;;;;16.52;6.10;;;;;;;25.89;100.00;99216.87;2144653;83;20999;-70
2022/08/04 06:23:49;;;;;;;15.43;5.80;;;;;;;26.08;100.00;99213.35;2144566;83;21039;-72
2022/08/04 06:26:50;;;;;;;15.32;5.42;;;;;;;26.20;100.00;99221.78;2144782;83;21538;-67
2022/08/04 06:29:53;;;;;;;;;;;;;;;26.43;100.00;99217.16;2146563;83;21016;-68
2022/08/04 06:32:55;;;;;;;16.37;5.72;;;;;;;26.56;100.00;99214.30;2144457;83;20140;-69
2022/08/04 06:35:57;;;;;;;15.95;5.40;;;;;;;26.77;100.00;99218.41;2144655;83;21610;-72
2022/08/04 06:38:58;;;;;;;15.80;5.75;;;;;;;27.06;100.00;99208.58;2144542;83;21003;-71
2022/08/04 06:42:00;;;;;;;15.45;5.30;;;;;;;27.06;100.00;99208.58;2144357;83;21031;-64
2022/08/04 06:45:01;;;;;;;15.75;5.37;;;;;;;27.37;100.00;99213.35;2144444;83;21533;-69
2022/08/04 06:48:02;;;;;;;14.87;5.42;;;;;;;27.54;100.00;99208.53;2144414;83;21018;-72
2022/08/04 06:51:04;;;;;;;15.28;5.00;;;;;;;27.82;100.00;99212.59;2144399;83;21054;-72
2022/08/04 06:54:06;;;;;;;17.30;4.90;;;;;;;27.94;94.88;99215.08;2144234;83;21566;-70
2022/08/04 06:57:08;;;;;;;16.45;5.72;;;;;;;28.03;95.26;99214.44;2144308;83;20964;-73
2022/08/04 07:00:10;;;;;;;15.53;4.65;;;;;;;28.22;95.97;99216.11;2144816;83;21043;-70
2022/08/04 07:03:12;;;;;;;11.93;4.28;;;;;;;28.47;94.21;99212.38;2144269;83;20996;-71
2022/08/04 07:06:13;;;;;;;12.30;4.37;;;;;;;28.53;90.16;99214.27;2144305;83;21550;-68
2022/08/04 07:09:15;;;;;;;12.23;4.45;;;;;;;28.51;88.90;99209.59;2144429;83;21027;-69
2022/08/04 07:12:19;;;;;;;12.37;4.37;;;;;;;28.62;88.30;99217.16;2144527;83;21526;-65
2022/08/04 07:15:19;;;;;;;13.48;4.80;;;;;;;28.74;86.78;99219.27;2120392;83;21494;-68
2022/08/04 07:18:21;;;;;;;16.80;4.78;;;;;;;28.79;84.07;99214.94;2144197;83;21078;-64
2022/08/04 07:21:23;;;;;;;;;;;;;;;28.91;84.72;99211.66;2146759;83;21023;-62
2022/08/04 07:24:24;;;;;;;12.47;4.42;;;;;;;28.97;83.06;99204.08;2144405;83;20171;-62
2022/08/04 07:27:25;;;;;;;;;;;;;;;29.02;83.31;99210.53;2147151;83;20999;-66
2022/08/04 07:30:27;;;;;;;12.80;4.05;;;;;;;29.18;74.05;99209.84;2144347;83;20167;-65
2022/08/04 07:33:28;;;;;;;;;;;;;;;29.24;79.39;99213.09;2147011;83;21463;-66
2022/08/04 07:36:30;;;;;;;10.38;3.72;;;;;;;29.42;78.71;99214.34;2144583;83;20186;-62
2022/08/04 07:39:32;;;;;;;;;;;;;;;29.60;76.92;99219.15;2146999;83;21075;-67
2022/08/04 07:42:34;;;;;;;11.33;3.90;;;;;;;29.72;76.04;99217.47;2144539;83;20147;-64
2022/08/04 07:45:35;;;;;;;;;;;;;;;29.85;75.73;99209.89;2146942;83;21521;-63
2022/08/04 07:48:37;;;;;;;12.10;3.90;;;;;;;29.97;73.15;99219.04;2144735;83;20148;-61
2022/08/04 07:51:39;;;;;;;14.83;4.55;;;;;;;30.03;71.22;99214.13;2144565;83;21034;-65
2022/08/04 07:54:40;;;;;;;13.62;4.20;;;;;;;30.03;69.49;99220.89;2144543;83;21035;-68
2022/08/04 07:57:42;;;;;;;14.47;4.80;;;;;;;30.10;71.56;99218.69;2144685;83;21050;-65
2022/08/04 08:00:43;;;;;;;14.65;4.12;;;;;;;30.39;70.26;99218.20;2144462;83;21083;-61
2022/08/04 08:03:45;;;;;;;11.63;3.87;;;;;;;30.22;67.25;99215.66;2144831;83;21034;-67
2022/08/04 08:06:46;;;;;;;14.25;3.83;;;;;;;30.26;69.26;99213.34;2144533;83;21011;-63
2022/08/04 08:09:48;;;;;;;13.35;4.50;;;;;;;30.46;68.99;99210.09;2144461;83;21549;-63
2022/08/04 08:12:49;;;;;;;12.53;4.08;;;;;;;30.78;68.77;99208.80;2144400;83;21012;-67
2022/08/04 08:15:51;;;;;;;10.48;3.65;;;;;;;30.95;68.21;99210.48;2144424;83;21018;-71
2022/08/04 08:18:52;;;;;;;11.35;3.62;;;;;;;31.02;65.14;99206.39;2144688;83;20976;-67
2022/08/04 08:21:54;;;;;;;9.43;3.30;;;;;;;31.13;63.46;99207.05;2144429;83;21003;-65
2022/08/04 08:24:55;;;;;;;9.75;3.58;;;;;;;31.26;60.68;99211.05;2144685;83;21494;-66
2022/08/04 08:27:56;;;;;;;10.23;3.60;;;;;;;31.32;62.00;99211.20;2144268;83;21007;-68
2022/08/04 08:30:58;;;;;;;8.95;3.27;;;;;;;31.30;61.94;99207.90;2144337;83;21016;-65
2022/08/04 08:34:00;;;;;;;7.92;2.90;;;;;;;31.35;59.17;99212.97;2144536;83;20995;-69
2022/08/04 08:37:02;;;;;;;8.48;3.47;;;;;;;31.40;58.74;99204.98;2144372;83;20961;-64
2022/08/04 08:40:04;;;;;;;9.83;3.35;;;;;;;31.40;56.58;99212.30;2144537;83;21006;-71
2022/08/04 08:43:05;;;;;;;6.70;3.12;;;;;;;31.42;56.46;99205.61;2144383;83;21078;-64
2022/08/04 08:46:06;;;;;;;7.50;3.10;;;;;;;31.48;58.73;99212.03;2144355;83;21040;-62
2022/08/04 08:49:08;;;;;;;10.60;3.40;;;;;;;31.67;56.52;99212.12;2144416;83;20991;-65
2022/08/04 08:52:09;;;;;;;11.50;3.00;;;;;;;31.52;51.34;99209.19;2144544;83;21011;-62
2022/08/04 08:55:11;;;;;;;7.20;3.00;;;;;;;31.40;54.81;99219.89;2144400;83;21070;-67
2022/08/04 08:58:13;;;;;;;9.18;3.08;;;;;;;31.36;54.23;99220.05;2144388;83;21592;-61
2022/08/04 09:01:14;;;;;;;8.95;3.30;;;;;;;31.47;54.41;99223.09;2144614;83;21000;-64
2022/08/04 09:04:15;;;;;;;6.47;2.90;;;;;;;31.55;53.16;99221.44;2144420;83;20949;-62
2022/08/04 09:07:17;;;;;;;7.67;3.10;;;;;;;31.60;53.76;99217.05;2144479;83;21012;-66
2022/08/04 09:10:18;;;;;;;10.25;3.20;;;;;;;31.72;53.30;99218.53;2144377;83;20996;-66
2022/08/04 09:13:20;;;;;;;11.90;3.20;;;;;;;31.85;53.33;99218.09;2144300;83;21577;-66
2022/08/04 09:16:22;;;;;;;10.68;3.25;;;;;;;31.98;53.02;99208.49;2144468;83;21019;-68
2022/08/04 09:19:23;;;;;;;9.40;3.30;;;;;;;32.05;53.30;99216.54;2144500;83;21487;-65
2022/08/04 09:22:25;;;;;;;8.10;3.30;;;;;;;32.06;49.99;99219.56;2144307;83;21074;-65
2022/08/04 09:25:27;;;;;;;11.08;3.60;;;;;;;32.00;50.50;99219.93;2144358;83;21507;-64
2022/08/04 09:28:28;;;;;;;10.58;3.42;;;;;;;32.03;49.57;99214.59;2144318;83;20976;-62
2022/08/04 09:31:30;;;;;;;7.97;3.52;;;;;;;32.02;49.74;99217.81;2144303;83;21016;-62
2022/08/04 09:34:31;;;;;;;8.00;3.40;;;;;;;32.07;48.63;99215.27;2144306;83;21016;-69
2022/08/04 09:37:33;;;;;;;9.53;3.72;;;;;;;31.94;43.75;99209.98;2144388;83;21015;-62
2022/08/04 09:40:34;;;;;;;10.98;3.62;;;;;;;31.86;48.92;99211.09;2144449;83;20987;-62
2022/08/04 09:43:37;;;;;;;10.63;3.20;;;;;;;31.99;48.96;99212.84;2144449;83;21027;-65
2022/08/04 09:46:38;;;;;;;11.18;3.77;;;;;;;32.11;45.30;99210.20;2136700;83;21035;-65
2022/08/04 09:49:39;;;;;;;9.30;3.58;;;;;;;32.21;48.90;99211.08;2134040;83;21007;-66
2022/08/04 09:52:42;;;;;;;9.63;3.50;;;;;;;32.53;48.06;99209.05;2134227;83;21535;-67
2022/08/04 09:55:44;;;;;;;9.88;3.58;;;;;;;32.74;47.86;99213.70;2134267;83;21048;-62
2022/08/04 09:58:46;;;;;;;9.88;3.40;;;;;;;32.86;47.19;99210.52;2134403;83;21076;-64
2022/08/04 10:01:47;;;;;;;12.13;3.67;;;;;;;32.86;47.54;99213.23;2134137;83;21064;-71
2022/08/04 10:04:49;;;;;;;12.10;3.60;;;;;;;32.83;46.09;99208.78;2134381;83;20987;-68
2022/08/04 10:07:52;;;;;;;9.23;3.60;;;;;;;32.98;47.14;99201.88;2134121;83;21123;-62
2022/08/04 10:10:53;;;;;;;11.78;3.60;;;;;;;32.99;42.16;99200.00;2106397;83;20956;-69
2022/08/04 10:13:55;;;;;;;8.48;3.40;;;;;;;32.63;45.08;99203.08;2134527;83;21455;-62
2022/08/04 10:16:57;;;;;;;10.75;3.47;;;;;;;32.72;44.16;99204.97;2134096;83;21139;-64
2022/08/04 10:19:59;;;;;;;6.67;3.25;;;;;;;32.74;43.83;99200.98;2134407;83;21538;-62
2022/08/04 10:23:01;;;;;;;10.50;3.30;;;;;;;32.84;44.04;99203.13;2134100;83;21064;-63
2022/08/04 10:26:02;;;;;;;8.78;3.40;;;;;;;32.90;42.89;99196.78;2134203;83;21627;-64
2022/08/04 10:29:04;;;;;;;9.10;3.50;;;;;;;33.13;42.34;99189.74;2134191;83;21088;-65
2022/08/04 10:32:05;;;;;;;9.28;3.40;;;;;;;33.45;41.99;99188.14;2134087;83;21115;-62
2022/08/04 10:35:06;;;;;;;9.23;3.30;;;;;;;33.56;43.54;99186.48;2134260;83;21060;-69
2022/08/04 10:38:08;;;;;;;10.13;3.40;;;;;;;33.54;40.36;99190.80;2134117;83;21104;-69
2022/08/04 10:41:09;;;;;;;10.13;3.50;;;;;;;33.60;43.65;99186.31;2134305;83;21570;-63
2022/08/04 10:44:11;;;;;;;7.47;3.00;;;;;;;33.71;42.61;99185.48;2134223;83;21111;-67
2022/08/04 10:47:12;;;;;;;7.72;3.30;;;;;;;33.73;41.70;99181.98;2142316;83;21117;-66
2022/08/04 10:50:14;;;;;;;9.75;3.10;;;;;;;33.81;41.79;99181.67;2144485;83;21027;-64
2022/08/04 10:53:16;;;;;;;7.80;3.12;;;;;;;33.86;39.48;99182.85;2144334;83;21008;-69
2022/08/04 10:56:17;;;;;;;8.18;3.60;;;;;;;33.77;40.79;99184.56;2144428;83;21479;-71
2022/08/04 10:59:18;;;;;;;8.43;3.58;;;;;;;33.83;39.87;99181.43;2144286;83;21039;-70
2022/08/04 11:02:20;;;;;;;7.67;3.02;;;;;;;34.01;41.12;99178.58;2144304;83;21494;-71
2022/08/04 11:05:22;;;;;;;7.62;3.00;;;;;;;34.01;40.48;99175.86;2144323;83;21003;-71
2022/08/04 11:08:23;;;;;;;9.10;3.02;;;;;;;34.02;40.58;99180.75;2144274;83;21510;-72
2022/08/04 11:11:25;;;;;;;9.05;3.10;;;;;;;34.12;37.38;99177.43;2144408;83;21078;-66
2022/08/04 11:14:26;;;;;;;10.13;3.05;;;;;;;34.06;40.00;99175.67;2144595;83;21027;-69
2022/08/04 11:17:28;;;;;;;10.53;3.27;;;;;;;34.00;39.82;99173.38;2144621;83;20984;-69
2022/08/04 11:20:29;;;;;;;8.98;3.22;;;;;;;34.17;40.24;99178.37;2144407;83;21004;-69
2022/08/04 11:23:30;;;;;;;10.60;3.12;;;;;;;34.27;39.39;99175.07;2144492;83;21533;-69
2022/08/04 11:26:32;;;;;;;9.00;3.40;;;;;;;34.37;38.65;99174.46;2144501;83;21320;-68
2022/08/04 11:29:33;;;;;;;10.48;3.27;;;;;;;34.42;39.80;99175.91;2144279;83;22082;-70
2022/08/04 11:32:35;;;;;;;7.75;3.08;;;;;;;34.33;39.28;99166.48;2144596;83;20991;-67
2022/08/04 11:35:37;;;;;;;11.30;3.05;;;;;;;34.48;38.30;99168.16;2144388;83;21534;-70
2022/08/04 11:38:39;;;;;;;7.72;3.00;;;;;;;34.56;39.67;99162.03;2144629;83;21043;-71
2022/08/04 11:41:41;;;;;;;9.58;3.50;;;;;;;34.68;37.03;99169.59;2144753;83;21566;-72
2022/08/04 11:44:42;;;;;;;10.45;4.03;;;;;;;34.44;36.20;99168.34;2144443;83;21050;-70
2022/08/04 11:47:44;;;;;;;9.23;3.40;;;;;;;34.39;38.82;99172.31;2134790;83;21040;-72
2022/08/04 11:50:47;;;;;;;12.00;3.60;;;;;;;34.43;39.25;99165.86;2134453;83;21019;-72
2022/08/04 11:53:48;;;;;;;10.28;3.10;;;;;;;34.46;38.36;99165.38;2134456;83;21498;-72
2022/08/04 11:56:50;;;;;;;8.80;3.20;;;;;;;34.60;37.83;99163.20;2134238;83;21059;-69
2022/08/04 11:59:51;;;;;;;10.32;3.40;;;;;;;34.62;37.47;99166.49;2134172;83;21610;-64
2022/08/04 12:02:53;;;;;;;10.72;3.15;;;;;;;34.48;37.40;99157.27;2134541;83;21015;-70
2022/08/04 12:05:54;;;;;;;9.58;3.00;;;;;;;34.57;37.74;99154.13;2134154;83;21057;-68
2022/08/04 12:08:55;;;;;;;11.35;3.35;;;;;;;34.68;37.80;99155.98;2133937;83;21111;-70
2022/08/04 12:11:57;;;;;;;8.93;3.00;;;;;;;34.71;38.03;99158.20;2134195;83;21040;-68
2022/08/04 12:14:59;;;;;;;9.95;3.27;;;;;;;34.99;37.19;99150.58;2134431;83;21546;-66
2022/08/04 12:18:00;;;;;;;11.05;3.45;;;;;;;35.24;37.50;99145.81;2134162;83;21100;-68
2022/08/04 12:21:01;;;;;;;11.20;3.20;;;;;;;35.23;37.51;99140.91;2134125;83;21103;-67
2022/08/04 12:24:03;;;;;;;9.68;3.20;;;;;;;35.29;36.89;99141.81;2134414;83;21019;-68
2022/08/04 12:27:04;;;;;;;7.25;3.33;;;;;;;35.09;36.33;99135.49;2134189;83;21111;-68
2022/08/04 12:30:06;;;;;;;8.55;3.25;;;;;;;34.90;36.20;99137.60;2134401;83;21568;-69
2022/08/04 12:33:07;;;;;;;11.95;3.40;;;;;;;34.94;36.08;99144.22;2134292;83;21072;-68
2022/08/04 12:36:08;;;;;;;8.78;3.10;;;;;;;35.03;37.44;99142.75;2133914;83;21138;-66
2022/08/04 12:39:10;;;;;;;7.80;3.25;;;;;;;35.12;34.26;99133.63;2134133;83;21127;-65
2022/08/04 12:42:12;;;;;;;8.13;3.47;;;;;;;35.00;36.56;99139.98;2134171;83;21060;-71
2022/08/04 12:45:13;;;;;;;8.33;3.10;;;;;;;35.04;36.03;99133.48;2134438;83;21502;-62
2022/08/04 12:48:15;;;;;;;12.23;3.40;;;;;;;35.12;35.68;99124.91;2127437;83;20973;-65
2022/08/04 12:51:17;;;;;;;11.60;3.10;;;;;;;35.05;35.24;99122.34;2172268;82;21529;-61
2022/08/04 12:54:18;;;;;;;8.78;3.17;;;;;;;34.85;36.01;99123.36;2172120;81;21035;-68
2022/08/04 12:57:19;;;;;;;8.88;3.30;;;;;;;34.89;34.85;99114.99;2172387;82;21513;-62
2022/08/04 13:00:21;;;;;;;10.43;3.10;;;;;;;35.14;36.01;99108.30;2172214;81;21050;-66
2022/08/04 13:03:23;;;;;;;11.68;3.30;;;;;;;35.11;34.77;99107.45;2172029;81;21150;-64
2022/08/04 13:06:24;;;;;;;8.53;3.00;;;;;;;35.10;35.03;99105.78;2172179;82;20967;-65
2022/08/04 13:09:27;;;;;;;7.50;2.92;;;;;;;35.31;35.69;99108.33;2172077;82;21102;-67
2022/08/04 13:12:28;;;;;;;9.73;3.42;;;;;;;35.37;35.44;99108.17;2172052;82;21132;-63
2022/08/04 13:15:32;;;;;;;6.47;2.83;;;;;;;35.37;33.98;99101.87;2172091;82;21537;-61
2022/08/04 13:18:33;;;;;;;10.45;3.27;;;;;;;35.02;32.34;99095.59;2162193;82;21470;-65
2022/08/04 13:21:35;;;;;;;8.75;2.77;;;;;;;35.11;34.67;99097.36;2171992;82;21019;-64
2022/08/04 13:24:36;;;;;;;7.72;2.65;;;;;;;35.25;35.05;99097.04;2172462;81;21545;-63
2022/08/04 13:27:38;;;;;;;8.03;2.92;;;;;;;35.18;34.45;99097.20;2172025;81;21121;-63
2022/08/04 13:30:40;;;;;;;7.80;2.83;;;;;;;35.15;34.82;99097.70;2171840;82;21134;-63
2022/08/04 13:33:42;;;;;;;8.05;3.00;;;;;;;35.25;33.80;99099.22;2172218;81;21035;-64
2022/08/04 13:36:43;;;;;;;8.45;3.00;;;;;;;35.31;34.16;99098.25;2172094;81;21094;-69
2022/08/04 13:39:45;;;;;;;19.75;7.60;;;;;;;35.62;35.25;99096.52;2172220;81;21034;-65
2022/08/04 13:42:46;;;;;;;8.28;2.87;;;;;;;35.67;34.52;99096.58;2172030;82;21071;-65
2022/08/04 13:45:48;;;;;;;7.40;2.80;;;;;;;35.75;35.01;99098.06;2173052;81;21058;-66
2022/08/04 13:48:49;;;;;;;6.28;2.87;;;;;;;35.84;34.11;99093.29;2181973;82;20970;-66
2022/08/04 13:51:50;;;;;;;9.33;2.80;;;;;;;35.70;34.44;99088.73;2182076;82;21528;-63
2022/08/04 13:54:52;;;;;;;8.45;2.90;;;;;;;35.62;34.36;99089.70;2181962;82;20982;-67
2022/08/04 13:57:53;;;;;;;7.65;2.72;;;;;;;35.45;33.01;99085.09;2181763;81;21038;-68
2022/08/04 14:00:55;;;;;;;5.17;2.60;;;;;;;35.27;34.24;99085.34;2182062;82;20939;-67
2022/08/04 14:03:57;;;;;;;8.83;3.00;;;;;;;35.37;35.05;99082.79;2181964;82;21001;-67
2022/08/04 14:06:59;;;;;;;11.70;3.20;;;;;;;35.48;35.07;99075.59;2182409;82;21077;-62
2022/08/04 14:10:00;;;;;;;8.60;2.60;;;;;;;35.59;32.44;99072.45;2181955;82;20986;-62